createdAt,value
2022-10-15T00:01:45.667Z,20.6
2022-10-15T00:06:48.622Z,21.3
2022-10-15T00:11:51.901Z,19.4
2022-10-15T00:16:53.723Z,19.6
2022-10-15T00:21:55.961Z,19.3
2022-10-15T00:26:58.011Z,18.7
2022-10-15T00:31:59.898Z,19.5
2022-10-15T00:37:01.807Z,19.7
2022-10-15T00:42:03.811Z,19.7
2022-10-15T00:47:05.864Z,20.2
2022-10-15T00:52:07.743Z,20.6
2022-10-15T00:57:09.700Z,20.3
2022-10-15T01:02:11.776Z,20.6
2022-10-15T01:07:14.372Z,20.6
2022-10-15T01:12:17.279Z,21.2
2022-10-15T01:17:19.357Z,21.9
2022-10-15T01:22:22.153Z,22.9
2022-10-15T01:27:24.669Z,23
2022-10-15T01:32:27.718Z,22.9
2022-10-15T01:37:29.622Z,23.4
2022-10-15T01:42:32.105Z,23.4
2022-10-15T01:47:34.342Z,23.6
2022-10-15T01:52:36.302Z,23.5
2022-10-15T01:57:38.410Z,23.4
2022-10-15T02:02:40.616Z,23.4
2022-10-15T02:07:43.019Z,23.4
2022-10-15T02:12:45.657Z,23.6
2022-10-15T02:17:47.803Z,22.8
2022-10-15T02:22:49.705Z,23.3
2022-10-15T02:27:51.685Z,23.5
2022-10-15T02:32:53.824Z,23.3
2022-10-15T02:37:55.765Z,23.2
2022-10-15T02:42:57.742Z,22.4
2022-10-15T02:47:59.845Z,22.2
2022-10-15T02:53:01.817Z,22.3
2022-10-15T02:58:03.723Z,22.7
2022-10-15T03:03:05.793Z,22.9
2022-10-15T03:08:09.072Z,22.6
2022-10-15T03:13:11.013Z,23.7
2022-10-15T03:18:13.250Z,23
2022-10-15T03:23:15.481Z,23
2022-10-15T03:28:17.479Z,22.7
2022-10-15T03:33:24.373Z,23.1
2022-10-15T03:38:27.505Z,21.8
2022-10-15T03:43:29.382Z,20.7
2022-10-15T03:48:31.491Z,21
2022-10-15T03:53:33.441Z,19.2
2022-10-15T03:58:35.652Z,18.3
2022-10-15T04:03:37.997Z,18.3
2022-10-15T04:08:40.577Z,17.4
2022-10-15T04:13:42.728Z,16.4
2022-10-15T04:18:45.797Z,16.1
2022-10-15T04:23:47.937Z,15.3
2022-10-15T04:28:50.190Z,15
2022-10-15T04:33:52.894Z,15.2
2022-10-15T04:38:55.319Z,14.4
2022-10-15T04:43:57.228Z,15.6
2022-10-15T04:48:59.210Z,14.5
2022-10-15T04:54:01.569Z,13.8
2022-10-15T04:59:03.515Z,13.4
2022-10-15T05:04:05.537Z,13.3
2022-10-15T05:09:07.633Z,13.5
2022-10-15T05:14:09.765Z,14.9
2022-10-15T05:19:11.979Z,13.2
2022-10-15T05:24:14.022Z,14
2022-10-15T05:29:15.941Z,13.6
2022-10-15T05:34:17.909Z,13.2
2022-10-15T05:39:19.963Z,13
2022-10-15T05:44:21.909Z,12.1
2022-10-15T05:49:23.831Z,12.5
2022-10-15T05:54:25.740Z,12.5
2022-10-15T05:59:27.862Z,11.8
2022-10-15T06:04:35.504Z,11.4
2022-10-15T06:09:38.249Z,10.7
2022-10-15T06:14:40.154Z,10.6
2022-10-15T06:19:42.019Z,10.8
2022-10-15T06:24:43.930Z,9.6
2022-10-15T06:29:45.987Z,10.2
2022-10-15T06:34:47.941Z,9.2
2022-10-15T06:39:51.215Z,9.4
2022-10-15T06:44:53.306Z,8.7
2022-10-15T06:49:55.212Z,8
2022-10-15T06:54:57.164Z,7.2
2022-10-15T06:59:59.402Z,6.8
2022-10-15T07:05:01.832Z,7.1
2022-10-15T07:10:03.982Z,6.7
2022-10-15T07:15:05.875Z,6.6
2022-10-15T07:20:07.857Z,6.6
2022-10-15T07:25:09.753Z,6.7
2022-10-15T07:30:11.675Z,6.3
2022-10-15T07:35:13.525Z,6.2
2022-10-15T07:40:15.461Z,5.8
2022-10-15T07:45:17.444Z,8.9
2022-10-15T07:50:18.065Z,5.6
2022-10-15T07:55:20.209Z,6
2022-10-15T08:00:22.582Z,5.3
2022-10-15T08:05:25.441Z,5.7
2022-10-15T08:10:28.668Z,5.4
2022-10-15T08:15:31.133Z,5.2
2022-10-15T08:20:33.015Z,4.9
2022-10-15T08:25:35.015Z,4.9
2022-10-15T08:30:36.964Z,4.7
2022-10-15T08:35:38.858Z,4.4
2022-10-15T08:40:40.786Z,4.3
2022-10-15T08:45:42.720Z,4.5
2022-10-15T08:50:44.869Z,4.1
2022-10-15T08:55:54.377Z,4.2
2022-10-15T09:00:56.334Z,4.3
2022-10-15T09:05:58.469Z,4.1
2022-10-15T09:11:01.281Z,4.3
2022-10-15T09:16:03.163Z,4.3
2022-10-15T09:21:05.650Z,4
2022-10-15T09:26:07.839Z,6.3
2022-10-15T09:31:08.303Z,6.2
2022-10-15T09:36:08.678Z,5.4
2022-10-15T09:41:10.783Z,5.5
2022-10-15T09:46:11.594Z,4
2022-10-15T09:51:16.851Z,4.1
2022-10-15T09:56:18.808Z,3.5
2022-10-15T10:01:20.674Z,5.2
2022-10-15T10:06:21.057Z,3.6
2022-10-15T10:11:25.572Z,3.5
2022-10-15T10:16:27.770Z,5.3
2022-10-15T10:21:28.239Z,3.5
2022-10-15T10:26:30.179Z,3.4
2022-10-15T10:31:32.252Z,4.7
2022-10-15T10:36:32.915Z,4.8
2022-10-15T10:41:33.399Z,3.1
2022-10-15T10:46:35.441Z,2.9
2022-10-15T10:51:37.676Z,2.8
2022-10-15T10:56:38.337Z,2.8
2022-10-15T11:01:40.432Z,2.7
2022-10-15T11:06:42.447Z,2.9
2022-10-15T11:11:44.556Z,3.1
2022-10-15T11:16:46.451Z,3
2022-10-15T11:21:48.578Z,4.2
2022-10-15T11:27:10.332Z,3.2
2022-10-15T11:32:14.519Z,3.1
2022-10-15T11:37:01.541Z,3.2
2022-10-15T11:42:03.472Z,3
2022-10-15T11:47:05.444Z,3.1
2022-10-15T11:52:07.602Z,3.4
2022-10-15T11:57:09.706Z,3.1
2022-10-15T12:02:11.706Z,3.3
2022-10-15T12:07:13.883Z,3.3
2022-10-15T12:12:16.382Z,3.3
2022-10-15T12:17:18.439Z,3.4
2022-10-15T12:22:20.553Z,4.7
2022-10-15T12:27:20.948Z,2.8
2022-10-15T12:32:24.394Z,2.9
2022-10-15T12:37:27.368Z,3
2022-10-15T12:42:29.645Z,2.9
2022-10-15T12:47:31.652Z,2.9
2022-10-15T12:52:33.782Z,3.4
2022-10-15T12:57:36.483Z,3.1
2022-10-15T13:02:38.814Z,2.7
2022-10-15T13:07:40.953Z,3
2022-10-15T13:12:43.038Z,2.9
2022-10-15T13:17:45.280Z,3
2022-10-15T13:22:47.457Z,2.7
2022-10-15T13:27:49.839Z,3
2022-10-15T13:32:52.471Z,3.4
2022-10-15T13:37:54.492Z,3.1
2022-10-15T13:42:56.759Z,3
2022-10-15T13:47:58.740Z,2.9
2022-10-15T13:53:01.371Z,3
2022-10-15T13:58:03.272Z,3.1
2022-10-15T14:03:05.298Z,3.2
2022-10-15T14:08:07.582Z,3.2
2022-10-15T14:13:09.734Z,3.3
2022-10-15T14:18:11.665Z,3.4
2022-10-15T14:23:13.883Z,3.5
2022-10-15T14:28:16.137Z,3.9
2022-10-15T14:33:18.733Z,3.7
2022-10-15T14:38:19.364Z,3.9
2022-10-15T14:43:21.403Z,3.8
2022-10-15T14:48:23.602Z,3.6
2022-10-15T14:53:25.617Z,3.3
2022-10-15T14:58:27.748Z,3.7
2022-10-15T15:03:30.419Z,3.5
2022-10-15T15:08:32.779Z,3.6
2022-10-15T15:13:34.765Z,3.5
2022-10-15T15:18:36.802Z,3.6
2022-10-15T15:23:38.907Z,3.6
2022-10-15T15:28:40.913Z,3.8
2022-10-15T15:33:43.077Z,3.5
2022-10-15T15:38:45.759Z,4
2022-10-15T15:43:47.902Z,4.2
2022-10-15T15:48:49.823Z,3.8
2022-10-15T15:53:52.210Z,4.1
2022-10-15T15:58:54.381Z,3.6
2022-10-15T16:03:56.303Z,3.8
2022-10-15T16:08:58.243Z,3.8
2022-10-15T16:14:00.437Z,3.9
2022-10-15T16:19:09.949Z,3.7
2022-10-15T16:24:12.389Z,3.9
2022-10-15T16:29:14.605Z,4.1
2022-10-15T16:34:16.559Z,4.1
2022-10-15T16:39:18.746Z,4.1
2022-10-15T16:40:30.688Z,4.6
2022-10-15T16:45:32.580Z,5
2022-10-15T16:50:34.615Z,5
2022-10-15T16:55:37.110Z,4.4
2022-10-15T17:05:42.093Z,4
2022-10-15T17:10:44.083Z,5.3
2022-10-15T17:15:44.671Z,3.6
2022-10-15T17:20:46.614Z,3.6
2022-10-15T17:25:48.600Z,3.7
2022-10-15T17:30:50.489Z,3.7
2022-10-15T17:35:52.390Z,3.8
2022-10-15T17:40:54.232Z,3.8
2022-10-15T17:45:56.275Z,3.8
2022-10-15T17:50:58.391Z,3.8
2022-10-15T17:56:00.812Z,4.3
2022-10-15T18:01:04.516Z,4.2
2022-10-15T18:06:06.498Z,4.2
2022-10-15T18:11:08.687Z,4.5
2022-10-15T18:16:11.039Z,4.6
2022-10-15T18:21:12.927Z,5
2022-10-15T18:26:20.496Z,5
2022-10-15T18:31:22.759Z,4.9
2022-10-15T18:36:24.831Z,5.2
2022-10-15T18:41:27.177Z,5.1
2022-10-15T18:46:29.451Z,4.7
2022-10-15T18:51:31.390Z,5.1
2022-10-15T18:56:33.348Z,5
2022-10-15T19:01:35.558Z,5.4
2022-10-15T19:06:37.854Z,5.5
2022-10-15T19:11:40.362Z,5.1
2022-10-15T19:16:58.875Z,5.7
2022-10-15T19:21:51.089Z,5.5
2022-10-15T19:26:53.364Z,5.5
2022-10-15T19:31:55.473Z,5.4
2022-10-15T19:36:57.536Z,5.4
2022-10-15T19:41:59.746Z,5.3
2022-10-15T19:47:01.653Z,5.3
2022-10-15T19:52:03.702Z,4.9
2022-10-15T19:57:05.767Z,5
2022-10-15T20:02:07.862Z,5.3
2022-10-15T20:07:09.907Z,5.3
2022-10-15T20:12:11.883Z,4.8
2022-10-15T20:17:14.367Z,4.6
2022-10-15T20:22:16.336Z,4.3
2022-10-15T20:27:19.309Z,4.5
2022-10-15T20:32:35.696Z,4.5
2022-10-15T20:37:29.278Z,4.3
2022-10-15T20:42:31.304Z,4.1
2022-10-15T20:47:33.372Z,4.4
2022-10-15T20:52:35.380Z,4.1
2022-10-15T20:57:37.368Z,4.1
2022-10-15T21:02:39.316Z,3.8
2022-10-15T21:07:42.544Z,4.1
2022-10-15T21:12:44.867Z,3.7
2022-10-15T21:17:47.038Z,3.8
2022-10-15T21:22:49.052Z,3.7
2022-10-15T21:27:51.241Z,3.7
2022-10-15T21:32:53.378Z,3.6
2022-10-15T21:37:55.359Z,3.6
2022-10-15T21:42:57.663Z,3.7
2022-10-15T21:47:59.607Z,3.4
2022-10-15T21:58:04.930Z,3.3
2022-10-15T22:03:06.895Z,3.4
2022-10-15T22:08:08.941Z,3.2
2022-10-15T22:13:11.316Z,3.2
2022-10-15T22:18:13.612Z,3.1
2022-10-15T22:23:15.686Z,3.1
2022-10-15T22:28:17.893Z,3
2022-10-15T22:33:20.300Z,3.2
2022-10-15T22:38:22.214Z,3.3
2022-10-15T22:43:24.511Z,3.1
2022-10-15T22:48:26.636Z,3
2022-10-15T22:53:28.569Z,3.3
2022-10-15T22:58:30.683Z,3.4
2022-10-15T23:03:32.598Z,3.3
2022-10-15T23:08:34.529Z,3.3
2022-10-15T23:13:36.965Z,3.2
2022-10-15T23:18:39.251Z,3.2
2022-10-15T23:23:41.135Z,3.3
2022-10-15T23:28:43.162Z,3.3
2022-10-15T23:33:45.531Z,3.3
2022-10-15T23:38:47.817Z,3.3
2022-10-15T23:43:49.982Z,3
2022-10-15T23:48:52.124Z,3.3
2022-10-15T23:53:54.383Z,3.1
2022-10-15T23:58:56.942Z,3.3
